sensor_id;sensor_type;location;lat;lon;timestamp;P1;durP1;ratioP1;P2;durP2;ratioP2
63087;SDS011;49173;43.164;27.786;2023-04-25T00:01:05;13.25;;;5.38;;
63087;SDS011;49173;43.164;27.786;2023-04-25T00:03:31;10.45;;;4.43;;
63087;SDS011;49173;43.164;27.786;2023-04-25T00:06:00;16.45;;;4.60;;
63087;SDS011;49173;43.164;27.786;2023-04-25T00:08:29;14.40;;;5.47;;
63087;SDS011;49173;43.164;27.786;2023-04-25T00:10:56;13.43;;;4.70;;
63087;SDS011;49173;43.164;27.786;2023-04-25T00:13:22;11.20;;;5.07;;
63087;SDS011;49173;43.164;27.786;2023-04-25T00:15:48;12.10;;;4.63;;
63087;SDS011;49173;43.164;27.786;2023-04-25T00:18:14;15.70;;;4.65;;
63087;SDS011;49173;43.164;27.786;2023-04-25T00:20:40;12.75;;;4.70;;
63087;SDS011;49173;43.164;27.786;2023-04-25T00:23:18;11.77;;;4.38;;
63087;SDS011;49173;43.164;27.786;2023-04-25T00:25:47;13.10;;;4.63;;
63087;SDS011;49173;43.164;27.786;2023-04-25T00:28:15;10.82;;;4.45;;
63087;SDS011;49173;43.164;27.786;2023-04-25T00:30:42;13.77;;;4.65;;
63087;SDS011;49173;43.164;27.786;2023-04-25T00:33:08;10.77;;;4.68;;
63087;SDS011;49173;43.164;27.786;2023-04-25T00:35:35;10.80;;;4.70;;
63087;SDS011;49173;43.164;27.786;2023-04-25T00:38:01;8.13;;;4.90;;
63087;SDS011;49173;43.164;27.786;2023-04-25T00:40:27;10.43;;;4.50;;
63087;SDS011;49173;43.164;27.786;2023-04-25T00:42:53;16.38;;;5.50;;
63087;SDS011;49173;43.164;27.786;2023-04-25T00:45:20;13.43;;;8.00;;
63087;SDS011;49173;43.164;27.786;2023-04-25T00:47:46;16.17;;;5.80;;
63087;SDS011;49173;43.164;27.786;2023-04-25T00:50:14;12.53;;;5.90;;
63087;SDS011;49173;43.164;27.786;2023-04-25T00:52:41;11.98;;;6.20;;
63087;SDS011;49173;43.164;27.786;2023-04-25T00:55:10;21.85;;;10.15;;
63087;SDS011;49173;43.164;27.786;2023-04-25T00:57:37;11.45;;;5.57;;
63087;SDS011;49173;43.164;27.786;2023-04-25T01:00:04;10.63;;;4.30;;
63087;SDS011;49173;43.164;27.786;2023-04-25T01:02:32;13.35;;;4.90;;
63087;SDS011;49173;43.164;27.786;2023-04-25T01:05:00;13.00;;;4.57;;
63087;SDS011;49173;43.164;27.786;2023-04-25T01:07:27;16.23;;;5.57;;
63087;SDS011;49173;43.164;27.786;2023-04-25T01:09:53;10.48;;;5.18;;
63087;SDS011;49173;43.164;27.786;2023-04-25T01:12:18;13.50;;;4.63;;
63087;SDS011;49173;43.164;27.786;2023-04-25T01:14:45;9.82;;;4.60;;
63087;SDS011;49173;43.164;27.786;2023-04-25T01:17:11;14.35;;;5.35;;
63087;SDS011;49173;43.164;27.786;2023-04-25T01:19:37;9.95;;;4.63;;
63087;SDS011;49173;43.164;27.786;2023-04-25T01:22:03;11.80;;;4.28;;
63087;SDS011;49173;43.164;27.786;2023-04-25T01:24:32;14.98;;;4.57;;
63087;SDS011;49173;43.164;27.786;2023-04-25T01:26:59;13.13;;;5.35;;
63087;SDS011;49173;43.164;27.786;2023-04-25T01:29:27;9.88;;;4.43;;
63087;SDS011;49173;43.164;27.786;2023-04-25T01:31:53;14.45;;;4.78;;
63087;SDS011;49173;43.164;27.786;2023-04-25T01:34:19;14.07;;;5.13;;
63087;SDS011;49173;43.164;27.786;2023-04-25T01:36:49;9.13;;;4.45;;
63087;SDS011;49173;43.164;27.786;2023-04-25T01:41:42;12.95;;;4.75;;
63087;SDS011;49173;43.164;27.786;2023-04-25T01:44:08;15.18;;;5.20;;
63087;SDS011;49173;43.164;27.786;2023-04-25T01:46:34;8.23;;;4.22;;
63087;SDS011;49173;43.164;27.786;2023-04-25T01:49:00;11.45;;;4.57;;
63087;SDS011;49173;43.164;27.786;2023-04-25T01:51:26;9.05;;;4.90;;
63087;SDS011;49173;43.164;27.786;2023-04-25T01:53:52;10.57;;;4.90;;
63087;SDS011;49173;43.164;27.786;2023-04-25T01:56:19;9.55;;;4.70;;
63087;SDS011;49173;43.164;27.786;2023-04-25T01:58:45;13.93;;;5.88;;
63087;SDS011;49173;43.164;27.786;2023-04-25T02:01:11;8.75;;;4.45;;
63087;SDS011;49173;43.164;27.786;2023-04-25T02:03:37;7.70;;;4.20;;
63087;SDS011;49173;43.164;27.786;2023-04-25T02:06:03;14.88;;;6.90;;
63087;SDS011;49173;43.164;27.786;2023-04-25T02:08:29;12.35;;;7.00;;
63087;SDS011;49173;43.164;27.786;2023-04-25T02:10:55;15.32;;;7.93;;
63087;SDS011;49173;43.164;27.786;2023-04-25T02:13:21;17.40;;;9.25;;
63087;SDS011;49173;43.164;27.786;2023-04-25T02:15:47;12.45;;;6.35;;
63087;SDS011;49173;43.164;27.786;2023-04-25T02:18:13;12.60;;;5.28;;
63087;SDS011;49173;43.164;27.786;2023-04-25T02:20:41;17.27;;;5.32;;
63087;SDS011;49173;43.164;27.786;2023-04-25T02:23:09;18.45;;;6.30;;
63087;SDS011;49173;43.164;27.786;2023-04-25T02:25:35;14.95;;;5.07;;
63087;SDS011;49173;43.164;27.786;2023-04-25T02:28:01;13.65;;;5.07;;
63087;SDS011;49173;43.164;27.786;2023-04-25T02:30:27;14.68;;;5.38;;
63087;SDS011;49173;43.164;27.786;2023-04-25T02:32:53;15.38;;;5.53;;
63087;SDS011;49173;43.164;27.786;2023-04-25T02:35:19;10.32;;;5.18;;
63087;SDS011;49173;43.164;27.786;2023-04-25T02:37:45;11.32;;;4.95;;
63087;SDS011;49173;43.164;27.786;2023-04-25T02:40:10;10.73;;;5.10;;
63087;SDS011;49173;43.164;27.786;2023-04-25T02:42:36;17.67;;;6.43;;
63087;SDS011;49173;43.164;27.786;2023-04-25T02:45:02;10.40;;;5.30;;
63087;SDS011;49173;43.164;27.786;2023-04-25T02:47:28;12.50;;;6.15;;
63087;SDS011;49173;43.164;27.786;2023-04-25T02:49:54;15.82;;;6.68;;
63087;SDS011;49173;43.164;27.786;2023-04-25T02:52:20;14.85;;;6.13;;
63087;SDS011;49173;43.164;27.786;2023-04-25T02:54:46;14.32;;;5.75;;
63087;SDS011;49173;43.164;27.786;2023-04-25T02:57:12;13.85;;;5.88;;
63087;SDS011;49173;43.164;27.786;2023-04-25T02:59:38;15.27;;;6.00;;
63087;SDS011;49173;43.164;27.786;2023-04-25T03:02:03;21.42;;;9.25;;
63087;SDS011;49173;43.164;27.786;2023-04-25T03:04:29;16.35;;;7.53;;
63087;SDS011;49173;43.164;27.786;2023-04-25T03:06:55;10.15;;;5.15;;
63087;SDS011;49173;43.164;27.786;2023-04-25T03:09:21;10.63;;;5.70;;
63087;SDS011;49173;43.164;27.786;2023-04-25T03:11:46;12.65;;;5.63;;
63087;SDS011;49173;43.164;27.786;2023-04-25T03:14:13;14.07;;;5.70;;
63087;SDS011;49173;43.164;27.786;2023-04-25T03:16:39;9.52;;;5.25;;
63087;SDS011;49173;43.164;27.786;2023-04-25T03:19:04;12.18;;;5.60;;
63087;SDS011;49173;43.164;27.786;2023-04-25T03:21:34;15.75;;;6.43;;
63087;SDS011;49173;43.164;27.786;2023-04-25T03:24:02;9.05;;;5.60;;
63087;SDS011;49173;43.164;27.786;2023-04-25T03:26:29;13.27;;;6.70;;
63087;SDS011;49173;43.164;27.786;2023-04-25T03:28:55;11.73;;;6.22;;
63087;SDS011;49173;43.164;27.786;2023-04-25T03:31:20;7.97;;;5.30;;
63087;SDS011;49173;43.164;27.786;2023-04-25T03:33:48;9.10;;;5.20;;
63087;SDS011;49173;43.164;27.786;2023-04-25T03:36:16;10.68;;;5.38;;
63087;SDS011;49173;43.164;27.786;2023-04-25T03:38:42;14.55;;;5.32;;
63087;SDS011;49173;43.164;27.786;2023-04-25T03:41:09;11.27;;;5.55;;
63087;SDS011;49173;43.164;27.786;2023-04-25T03:43:38;10.60;;;5.43;;
63087;SDS011;49173;43.164;27.786;2023-04-25T03:46:08;9.70;;;5.45;;
63087;SDS011;49173;43.164;27.786;2023-04-25T03:48:35;12.98;;;6.03;;
63087;SDS011;49173;43.164;27.786;2023-04-25T03:51:03;15.38;;;6.82;;
63087;SDS011;49173;43.164;27.786;2023-04-25T03:53:32;11.85;;;6.07;;
63087;SDS011;49173;43.164;27.786;2023-04-25T03:55:58;9.15;;;6.28;;
63087;SDS011;49173;43.164;27.786;2023-04-25T03:58:25;9.75;;;5.90;;
63087;SDS011;49173;43.164;27.786;2023-04-25T04:00:54;11.13;;;5.65;;
63087;SDS011;49173;43.164;27.786;2023-04-25T04:05:49;12.85;;;5.30;;
63087;SDS011;49173;43.164;27.786;2023-04-25T04:08:19;10.52;;;5.20;;
63087;SDS011;49173;43.164;27.786;2023-04-25T04:10:45;9.80;;;4.82;;
63087;SDS011;49173;43.164;27.786;2023-04-25T04:13:11;9.23;;;4.40;;
63087;SDS011;49173;43.164;27.786;2023-04-25T04:15:39;8.85;;;5.28;;
63087;SDS011;49173;43.164;27.786;2023-04-25T04:18:05;13.00;;;5.15;;
63087;SDS011;49173;43.164;27.786;2023-04-25T04:20:31;8.63;;;3.72;;
63087;SDS011;49173;43.164;27.786;2023-04-25T04:22:58;6.13;;;3.30;;
63087;SDS011;49173;43.164;27.786;2023-04-25T04:25:24;9.75;;;3.47;;
63087;SDS011;49173;43.164;27.786;2023-04-25T04:27:52;10.73;;;3.95;;
63087;SDS011;49173;43.164;27.786;2023-04-25T04:30:22;19.67;;;12.38;;
63087;SDS011;49173;43.164;27.786;2023-04-25T04:32:57;10.55;;;5.43;;
63087;SDS011;49173;43.164;27.786;2023-04-25T04:35:27;7.60;;;3.60;;
63087;SDS011;49173;43.164;27.786;2023-04-25T04:37:53;13.10;;;6.05;;
63087;SDS011;49173;43.164;27.786;2023-04-25T04:40:21;13.88;;;5.53;;
63087;SDS011;49173;43.164;27.786;2023-04-25T04:42:49;14.60;;;5.70;;
63087;SDS011;49173;43.164;27.786;2023-04-25T04:45:20;11.55;;;5.20;;
63087;SDS011;49173;43.164;27.786;2023-04-25T04:48:06;10.75;;;5.65;;
63087;SDS011;49173;43.164;27.786;2023-04-25T04:50:33;13.55;;;6.93;;
63087;SDS011;49173;43.164;27.786;2023-04-25T04:53:04;8.80;;;4.93;;
63087;SDS011;49173;43.164;27.786;2023-04-25T04:55:30;10.38;;;4.80;;
63087;SDS011;49173;43.164;27.786;2023-04-25T04:57:59;10.18;;;5.70;;
63087;SDS011;49173;43.164;27.786;2023-04-25T05:00:26;13.30;;;5.35;;
63087;SDS011;49173;43.164;27.786;2023-04-25T05:02:53;9.38;;;5.20;;
63087;SDS011;49173;43.164;27.786;2023-04-25T05:05:19;12.10;;;5.97;;
63087;SDS011;49173;43.164;27.786;2023-04-25T05:07:47;9.00;;;4.82;;
63087;SDS011;49173;43.164;27.786;2023-04-25T05:10:16;9.20;;;4.65;;
63087;SDS011;49173;43.164;27.786;2023-04-25T05:12:44;8.00;;;4.40;;
63087;SDS011;49173;43.164;27.786;2023-04-25T05:15:11;8.57;;;4.50;;
63087;SDS011;49173;43.164;27.786;2023-04-25T05:17:40;11.55;;;5.13;;
63087;SDS011;49173;43.164;27.786;2023-04-25T05:20:07;8.73;;;5.13;;
63087;SDS011;49173;43.164;27.786;2023-04-25T05:22:35;13.00;;;4.67;;
63087;SDS011;49173;43.164;27.786;2023-04-25T05:25:01;8.50;;;3.40;;
63087;SDS011;49173;43.164;27.786;2023-04-25T05:27:29;7.43;;;4.45;;
63087;SDS011;49173;43.164;27.786;2023-04-25T05:29:55;8.63;;;3.58;;
63087;SDS011;49173;43.164;27.786;2023-04-25T05:32:23;6.63;;;3.22;;
63087;SDS011;49173;43.164;27.786;2023-04-25T05:34:53;6.60;;;3.53;;
63087;SDS011;49173;43.164;27.786;2023-04-25T05:37:20;7.30;;;4.10;;
63087;SDS011;49173;43.164;27.786;2023-04-25T05:39:47;8.13;;;3.38;;
63087;SDS011;49173;43.164;27.786;2023-04-25T05:44:44;5.85;;;2.85;;
63087;SDS011;49173;43.164;27.786;2023-04-25T05:47:12;8.55;;;3.10;;
63087;SDS011;49173;43.164;27.786;2023-04-25T05:49:39;5.30;;;2.92;;
63087;SDS011;49173;43.164;27.786;2023-04-25T05:52:06;10.25;;;3.60;;
63087;SDS011;49173;43.164;27.786;2023-04-25T05:54:35;9.77;;;3.67;;
63087;SDS011;49173;43.164;27.786;2023-04-25T05:57:02;10.98;;;3.25;;
63087;SDS011;49173;43.164;27.786;2023-04-25T05:59:29;5.72;;;3.22;;
63087;SDS011;49173;43.164;27.786;2023-04-25T06:01:56;9.15;;;3.28;;
63087;SDS011;49173;43.164;27.786;2023-04-25T06:04:26;5.45;;;3.17;;
63087;SDS011;49173;43.164;27.786;2023-04-25T06:06:56;10.10;;;3.75;;
63087;SDS011;49173;43.164;27.786;2023-04-25T06:09:26;6.25;;;3.28;;
63087;SDS011;49173;43.164;27.786;2023-04-25T06:11:52;7.30;;;3.42;;
63087;SDS011;49173;43.164;27.786;2023-04-25T06:14:19;11.25;;;2.95;;
63087;SDS011;49173;43.164;27.786;2023-04-25T06:16:48;6.70;;;3.00;;
63087;SDS011;49173;43.164;27.786;2023-04-25T06:19:18;6.18;;;2.85;;
63087;SDS011;49173;43.164;27.786;2023-04-25T06:21:44;6.22;;;3.25;;
63087;SDS011;49173;43.164;27.786;2023-04-25T06:24:12;9.02;;;3.50;;
63087;SDS011;49173;43.164;27.786;2023-04-25T06:26:40;7.85;;;3.10;;
63087;SDS011;49173;43.164;27.786;2023-04-25T06:29:06;7.53;;;3.03;;
63087;SDS011;49173;43.164;27.786;2023-04-25T06:31:35;6.00;;;3.15;;
63087;SDS011;49173;43.164;27.786;2023-04-25T06:34:03;5.20;;;3.50;;
63087;SDS011;49173;43.164;27.786;2023-04-25T06:36:33;12.32;;;3.25;;
63087;SDS011;49173;43.164;27.786;2023-04-25T06:38:59;8.60;;;3.33;;
63087;SDS011;49173;43.164;27.786;2023-04-25T06:41:25;6.18;;;3.30;;
63087;SDS011;49173;43.164;27.786;2023-04-25T06:43:52;6.38;;;3.10;;
63087;SDS011;49173;43.164;27.786;2023-04-25T06:46:18;8.30;;;3.15;;
63087;SDS011;49173;43.164;27.786;2023-04-25T06:48:45;6.35;;;3.47;;
63087;SDS011;49173;43.164;27.786;2023-04-25T06:51:11;8.40;;;3.40;;
63087;SDS011;49173;43.164;27.786;2023-04-25T06:53:39;5.60;;;3.17;;
63087;SDS011;49173;43.164;27.786;2023-04-25T06:56:07;7.43;;;3.23;;
63087;SDS011;49173;43.164;27.786;2023-04-25T06:58:35;6.65;;;3.08;;
63087;SDS011;49173;43.164;27.786;2023-04-25T07:01:01;4.63;;;3.13;;
63087;SDS011;49173;43.164;27.786;2023-04-25T07:03:28;4.28;;;2.95;;
63087;SDS011;49173;43.164;27.786;2023-04-25T07:05:54;8.10;;;3.63;;
63087;SDS011;49173;43.164;27.786;2023-04-25T07:08:21;4.57;;;2.88;;
63087;SDS011;49173;43.164;27.786;2023-04-25T07:10:52;3.58;;;2.72;;
63087;SDS011;49173;43.164;27.786;2023-04-25T07:13:19;9.07;;;3.47;;
63087;SDS011;49173;43.164;27.786;2023-04-25T07:15:45;5.40;;;2.70;;
63087;SDS011;49173;43.164;27.786;2023-04-25T07:18:15;6.65;;;3.15;;
63087;SDS011;49173;43.164;27.786;2023-04-25T07:20:44;4.97;;;2.90;;
63087;SDS011;49173;43.164;27.786;2023-04-25T07:23:13;6.75;;;3.15;;
63087;SDS011;49173;43.164;27.786;2023-04-25T07:25:41;4.60;;;3.28;;
63087;SDS011;49173;43.164;27.786;2023-04-25T07:28:10;9.13;;;3.10;;
63087;SDS011;49173;43.164;27.786;2023-04-25T07:30:37;5.72;;;2.75;;
63087;SDS011;49173;43.164;27.786;2023-04-25T07:33:03;6.05;;;2.92;;
63087;SDS011;49173;43.164;27.786;2023-04-25T07:35:30;5.55;;;2.78;;
63087;SDS011;49173;43.164;27.786;2023-04-25T07:37:56;5.88;;;3.00;;
63087;SDS011;49173;43.164;27.786;2023-04-25T07:40:22;5.75;;;3.00;;
63087;SDS011;49173;43.164;27.786;2023-04-25T07:42:51;6.20;;;3.00;;
63087;SDS011;49173;43.164;27.786;2023-04-25T07:45:38;5.97;;;2.85;;
63087;SDS011;49173;43.164;27.786;2023-04-25T07:48:04;5.60;;;3.00;;
63087;SDS011;49173;43.164;27.786;2023-04-25T07:50:31;4.20;;;2.80;;
63087;SDS011;49173;43.164;27.786;2023-04-25T07:52:57;4.90;;;3.05;;
63087;SDS011;49173;43.164;27.786;2023-04-25T07:55:25;4.90;;;2.92;;
63087;SDS011;49173;43.164;27.786;2023-04-25T07:57:53;6.38;;;2.80;;
63087;SDS011;49173;43.164;27.786;2023-04-25T08:00:21;3.70;;;2.40;;
63087;SDS011;49173;43.164;27.786;2023-04-25T08:02:48;4.87;;;3.40;;
63087;SDS011;49173;43.164;27.786;2023-04-25T08:05:17;5.38;;;3.35;;
63087;SDS011;49173;43.164;27.786;2023-04-25T08:07:47;4.90;;;3.05;;
63087;SDS011;49173;43.164;27.786;2023-04-25T08:10:14;5.78;;;3.20;;
63087;SDS011;49173;43.164;27.786;2023-04-25T08:12:40;4.88;;;2.90;;
63087;SDS011;49173;43.164;27.786;2023-04-25T08:15:08;4.65;;;2.72;;
63087;SDS011;49173;43.164;27.786;2023-04-25T08:17:35;5.32;;;2.55;;
63087;SDS011;49173;43.164;27.786;2023-04-25T08:20:04;5.63;;;3.17;;
63087;SDS011;49173;43.164;27.786;2023-04-25T08:22:32;4.60;;;3.17;;
63087;SDS011;49173;43.164;27.786;2023-04-25T08:25:04;7.60;;;2.83;;
63087;SDS011;49173;43.164;27.786;2023-04-25T08:27:31;5.13;;;3.00;;
63087;SDS011;49173;43.164;27.786;2023-04-25T08:29:59;4.00;;;2.90;;
63087;SDS011;49173;43.164;27.786;2023-04-25T08:32:25;6.57;;;3.25;;
63087;SDS011;49173;43.164;27.786;2023-04-25T08:34:54;5.03;;;3.00;;
63087;SDS011;49173;43.164;27.786;2023-04-25T08:37:21;4.53;;;3.00;;
63087;SDS011;49173;43.164;27.786;2023-04-25T08:39:49;6.38;;;3.08;;
63087;SDS011;49173;43.164;27.786;2023-04-25T08:42:19;4.68;;;3.10;;
63087;SDS011;49173;43.164;27.786;2023-04-25T08:44:48;7.88;;;3.05;;
63087;SDS011;49173;43.164;27.786;2023-04-25T08:47:21;5.22;;;3.00;;
63087;SDS011;49173;43.164;27.786;2023-04-25T08:49:50;5.63;;;3.20;;
63087;SDS011;49173;43.164;27.786;2023-04-25T08:52:22;5.50;;;3.20;;
63087;SDS011;49173;43.164;27.786;2023-04-25T08:54:50;5.28;;;3.00;;
63087;SDS011;49173;43.164;27.786;2023-04-25T08:57:20;4.32;;;3.08;;
63087;SDS011;49173;43.164;27.786;2023-04-25T09:02:16;3.75;;;3.20;;
63087;SDS011;49173;43.164;27.786;2023-04-25T09:04:45;5.22;;;3.17;;
63087;SDS011;49173;43.164;27.786;2023-04-25T09:07:15;4.53;;;2.85;;
63087;SDS011;49173;43.164;27.786;2023-04-25T09:09:44;4.07;;;2.85;;
63087;SDS011;49173;43.164;27.786;2023-04-25T09:12:11;6.65;;;2.95;;
63087;SDS011;49173;43.164;27.786;2023-04-25T09:14:40;5.50;;;3.05;;
63087;SDS011;49173;43.164;27.786;2023-04-25T09:17:08;5.15;;;3.75;;
63087;SDS011;49173;43.164;27.786;2023-04-25T09:19:35;5.03;;;3.22;;
63087;SDS011;49173;43.164;27.786;2023-04-25T09:22:05;6.68;;;3.40;;
63087;SDS011;49173;43.164;27.786;2023-04-25T09:24:36;5.05;;;2.95;;
63087;SDS011;49173;43.164;27.786;2023-04-25T09:27:06;5.50;;;3.83;;
63087;SDS011;49173;43.164;27.786;2023-04-25T09:29:36;4.65;;;2.80;;
63087;SDS011;49173;43.164;27.786;2023-04-25T09:32:22;5.40;;;3.20;;
63087;SDS011;49173;43.164;27.786;2023-04-25T09:34:50;14.43;;;3.35;;
63087;SDS011;49173;43.164;27.786;2023-04-25T09:37:25;4.88;;;2.80;;
63087;SDS011;49173;43.164;27.786;2023-04-25T09:39:54;6.45;;;3.17;;
63087;SDS011;49173;43.164;27.786;2023-04-25T09:42:33;6.18;;;3.13;;
63087;SDS011;49173;43.164;27.786;2023-04-25T09:45:01;5.47;;;3.10;;
63087;SDS011;49173;43.164;27.786;2023-04-25T09:47:29;6.50;;;3.45;;
63087;SDS011;49173;43.164;27.786;2023-04-25T09:49:56;6.00;;;3.20;;
63087;SDS011;49173;43.164;27.786;2023-04-25T09:52:23;4.60;;;3.13;;
63087;SDS011;49173;43.164;27.786;2023-04-25T09:54:50;4.47;;;2.90;;
63087;SDS011;49173;43.164;27.786;2023-04-25T09:57:18;4.80;;;3.20;;
63087;SDS011;49173;43.164;27.786;2023-04-25T09:59:49;8.68;;;3.03;;
63087;SDS011;49173;43.164;27.786;2023-04-25T10:02:20;4.10;;;2.90;;
63087;SDS011;49173;43.164;27.786;2023-04-25T10:04:53;4.50;;;3.00;;
63087;SDS011;49173;43.164;27.786;2023-04-25T10:07:38;3.95;;;2.78;;
63087;SDS011;49173;43.164;27.786;2023-04-25T10:10:08;4.32;;;2.55;;
63087;SDS011;49173;43.164;27.786;2023-04-25T10:12:38;4.55;;;2.60;;
63087;SDS011;49173;43.164;27.786;2023-04-25T10:15:06;3.40;;;2.50;;
63087;SDS011;49173;43.164;27.786;2023-04-25T10:17:53;5.40;;;2.55;;
63087;SDS011;49173;43.164;27.786;2023-04-25T10:20:22;3.50;;;2.45;;
63087;SDS011;49173;43.164;27.786;2023-04-25T10:22:48;5.57;;;2.50;;
63087;SDS011;49173;43.164;27.786;2023-04-25T10:25:24;3.60;;;2.10;;
63087;SDS011;49173;43.164;27.786;2023-04-25T10:27:52;9.38;;;2.50;;
63087;SDS011;49173;43.164;27.786;2023-04-25T10:30:19;4.45;;;2.30;;
63087;SDS011;49173;43.164;27.786;2023-04-25T10:32:48;4.07;;;2.00;;
63087;SDS011;49173;43.164;27.786;2023-04-25T10:35:18;4.70;;;2.15;;
63087;SDS011;49173;43.164;27.786;2023-04-25T10:40:34;4.53;;;2.30;;
63087;SDS011;49173;43.164;27.786;2023-04-25T10:48:49;3.10;;;2.10;;
63087;SDS011;49173;43.164;27.786;2023-04-25T10:53:56;2.80;;;1.98;;
63087;SDS011;49173;43.164;27.786;2023-04-25T10:59:05;3.85;;;2.20;;
63087;SDS011;49173;43.164;27.786;2023-04-25T11:01:45;3.38;;;2.22;;
63087;SDS011;49173;43.164;27.786;2023-04-25T11:04:24;4.40;;;2.47;;
63087;SDS011;49173;43.164;27.786;2023-04-25T11:09:40;2.85;;;2.15;;
63087;SDS011;49173;43.164;27.786;2023-04-25T11:12:09;4.10;;;2.10;;
63087;SDS011;49173;43.164;27.786;2023-04-25T11:14:37;4.07;;;2.53;;
63087;SDS011;49173;43.164;27.786;2023-04-25T11:17:06;4.75;;;2.50;;
63087;SDS011;49173;43.164;27.786;2023-04-25T11:19:37;2.88;;;2.00;;
63087;SDS011;49173;43.164;27.786;2023-04-25T11:22:04;4.38;;;2.72;;
63087;SDS011;49173;43.164;27.786;2023-04-25T11:24:37;3.83;;;2.20;;
63087;SDS011;49173;43.164;27.786;2023-04-25T11:27:07;5.93;;;2.65;;
63087;SDS011;49173;43.164;27.786;2023-04-25T11:29:34;3.90;;;2.38;;
63087;SDS011;49173;43.164;27.786;2023-04-25T11:32:01;7.22;;;2.47;;
63087;SDS011;49173;43.164;27.786;2023-04-25T11:34:28;4.60;;;2.50;;
63087;SDS011;49173;43.164;27.786;2023-04-25T11:36:57;4.78;;;2.60;;
63087;SDS011;49173;43.164;27.786;2023-04-25T11:39:24;6.13;;;2.78;;
63087;SDS011;49173;43.164;27.786;2023-04-25T11:41:51;3.08;;;2.35;;
63087;SDS011;49173;43.164;27.786;2023-04-25T11:44:19;3.78;;;2.30;;
63087;SDS011;49173;43.164;27.786;2023-04-25T11:46:46;5.47;;;2.50;;
63087;SDS011;49173;43.164;27.786;2023-04-25T11:49:14;5.28;;;2.30;;
63087;SDS011;49173;43.164;27.786;2023-04-25T11:51:44;9.10;;;2.70;;
63087;SDS011;49173;43.164;27.786;2023-04-25T11:56:42;5.63;;;2.80;;
63087;SDS011;49173;43.164;27.786;2023-04-25T11:59:12;5.28;;;3.03;;
63087;SDS011;49173;43.164;27.786;2023-04-25T12:01:47;7.00;;;3.30;;
63087;SDS011;49173;43.164;27.786;2023-04-25T12:04:19;6.07;;;3.00;;
63087;SDS011;49173;43.164;27.786;2023-04-25T12:06:50;5.28;;;3.10;;
63087;SDS011;49173;43.164;27.786;2023-04-25T12:09:27;5.55;;;2.90;;
63087;SDS011;49173;43.164;27.786;2023-04-25T12:11:57;5.70;;;3.17;;
63087;SDS011;49173;43.164;27.786;2023-04-25T12:14:25;5.70;;;2.80;;
63087;SDS011;49173;43.164;27.786;2023-04-25T12:16:55;3.90;;;2.80;;
63087;SDS011;49173;43.164;27.786;2023-04-25T12:19:27;7.43;;;2.85;;
63087;SDS011;49173;43.164;27.786;2023-04-25T12:22:02;3.63;;;2.78;;
63087;SDS011;49173;43.164;27.786;2023-04-25T12:24:44;4.90;;;2.92;;
63087;SDS011;49173;43.164;27.786;2023-04-25T12:29:52;6.07;;;3.05;;
63087;SDS011;49173;43.164;27.786;2023-04-25T12:32:19;6.35;;;3.10;;
63087;SDS011;49173;43.164;27.786;2023-04-25T12:34:47;7.80;;;3.58;;
63087;SDS011;49173;43.164;27.786;2023-04-25T12:37:13;7.13;;;3.50;;
63087;SDS011;49173;43.164;27.786;2023-04-25T12:39:42;8.02;;;3.78;;
63087;SDS011;49173;43.164;27.786;2023-04-25T12:42:09;5.72;;;3.40;;
63087;SDS011;49173;43.164;27.786;2023-04-25T12:44:40;7.07;;;3.72;;
63087;SDS011;49173;43.164;27.786;2023-04-25T12:47:06;9.85;;;3.40;;
63087;SDS011;49173;43.164;27.786;2023-04-25T12:49:36;5.93;;;3.72;;
63087;SDS011;49173;43.164;27.786;2023-04-25T12:54:31;7.38;;;3.50;;
63087;SDS011;49173;43.164;27.786;2023-04-25T12:57:00;6.10;;;3.47;;
63087;SDS011;49173;43.164;27.786;2023-04-25T12:59:28;5.60;;;3.47;;
63087;SDS011;49173;43.164;27.786;2023-04-25T13:01:57;5.38;;;3.67;;
63087;SDS011;49173;43.164;27.786;2023-04-25T13:04:27;7.53;;;3.90;;
63087;SDS011;49173;43.164;27.786;2023-04-25T13:06:54;7.22;;;3.50;;
63087;SDS011;49173;43.164;27.786;2023-04-25T13:09:24;5.95;;;4.10;;
63087;SDS011;49173;43.164;27.786;2023-04-25T13:11:52;7.55;;;3.83;;
63087;SDS011;49173;43.164;27.786;2023-04-25T13:14:18;7.60;;;4.65;;
63087;SDS011;49173;43.164;27.786;2023-04-25T13:16:44;6.53;;;4.40;;
63087;SDS011;49173;43.164;27.786;2023-04-25T13:19:12;7.75;;;4.20;;
63087;SDS011;49173;43.164;27.786;2023-04-25T13:24:08;6.47;;;4.45;;
63087;SDS011;49173;43.164;27.786;2023-04-25T13:26:34;6.65;;;5.28;;
63087;SDS011;49173;43.164;27.786;2023-04-25T13:29:03;10.95;;;4.88;;
63087;SDS011;49173;43.164;27.786;2023-04-25T13:31:30;9.90;;;5.40;;
63087;SDS011;49173;43.164;27.786;2023-04-25T13:33:57;10.48;;;5.32;;
63087;SDS011;49173;43.164;27.786;2023-04-25T13:36:24;8.85;;;5.15;;
63087;SDS011;49173;43.164;27.786;2023-04-25T13:38:54;9.25;;;6.28;;
63087;SDS011;49173;43.164;27.786;2023-04-25T13:41:23;10.98;;;6.30;;
63087;SDS011;49173;43.164;27.786;2023-04-25T13:43:49;8.63;;;5.28;;
63087;SDS011;49173;43.164;27.786;2023-04-25T13:46:17;11.43;;;5.70;;
63087;SDS011;49173;43.164;27.786;2023-04-25T13:48:47;8.07;;;5.90;;
63087;SDS011;49173;43.164;27.786;2023-04-25T13:51:15;6.85;;;5.60;;
63087;SDS011;49173;43.164;27.786;2023-04-25T13:53:43;9.40;;;5.53;;
63087;SDS011;49173;43.164;27.786;2023-04-25T13:56:13;9.18;;;5.45;;
63087;SDS011;49173;43.164;27.786;2023-04-25T13:58:39;10.00;;;6.50;;
63087;SDS011;49173;43.164;27.786;2023-04-25T14:02:41;9.20;;;6.63;;
63087;SDS011;49173;43.164;27.786;2023-04-25T14:05:07;10.73;;;6.97;;
63087;SDS011;49173;43.164;27.786;2023-04-25T14:07:33;11.68;;;6.72;;
63087;SDS011;49173;43.164;27.786;2023-04-25T14:10:02;10.20;;;6.68;;
63087;SDS011;49173;43.164;27.786;2023-04-25T14:12:32;8.40;;;6.80;;
63087;SDS011;49173;43.164;27.786;2023-04-25T14:14:58;13.73;;;9.25;;
63087;SDS011;49173;43.164;27.786;2023-04-25T14:17:29;9.85;;;7.30;;
63087;SDS011;49173;43.164;27.786;2023-04-25T14:20:04;15.95;;;8.15;;
63087;SDS011;49173;43.164;27.786;2023-04-25T14:22:31;12.30;;;7.53;;
63087;SDS011;49173;43.164;27.786;2023-04-25T14:25:00;12.23;;;8.40;;
63087;SDS011;49173;43.164;27.786;2023-04-25T14:27:29;16.25;;;7.25;;
63087;SDS011;49173;43.164;27.786;2023-04-25T14:29:57;9.80;;;6.10;;
63087;SDS011;49173;43.164;27.786;2023-04-25T14:32:27;10.18;;;5.72;;
63087;SDS011;49173;43.164;27.786;2023-04-25T14:34:57;14.98;;;5.18;;
63087;SDS011;49173;43.164;27.786;2023-04-25T14:37:23;8.50;;;4.60;;
63087;SDS011;49173;43.164;27.786;2023-04-25T14:39:49;10.65;;;4.55;;
63087;SDS011;49173;43.164;27.786;2023-04-25T14:42:20;9.38;;;3.70;;
63087;SDS011;49173;43.164;27.786;2023-04-25T14:44:47;8.38;;;3.25;;
63087;SDS011;49173;43.164;27.786;2023-04-25T14:47:14;6.15;;;2.97;;
63087;SDS011;49173;43.164;27.786;2023-04-25T14:49:41;5.60;;;2.53;;
63087;SDS011;49173;43.164;27.786;2023-04-25T14:52:10;7.82;;;2.75;;
63087;SDS011;49173;43.164;27.786;2023-04-25T14:54:39;8.15;;;2.20;;
63087;SDS011;49173;43.164;27.786;2023-04-25T14:57:14;5.18;;;2.58;;
63087;SDS011;49173;43.164;27.786;2023-04-25T14:59:41;5.88;;;3.15;;
63087;SDS011;49173;43.164;27.786;2023-04-25T15:02:10;15.02;;;7.60;;
63087;SDS011;49173;43.164;27.786;2023-04-25T15:04:41;17.38;;;11.63;;
63087;SDS011;49173;43.164;27.786;2023-04-25T15:07:09;23.42;;;16.77;;
63087;SDS011;49173;43.164;27.786;2023-04-25T15:09:37;28.85;;;18.38;;
63087;SDS011;49173;43.164;27.786;2023-04-25T15:12:06;26.67;;;17.45;;